sensor_id;sensor_type;location;lat;lon;timestamp;P1;durP1;ratioP1;P2;durP2;ratioP2
49730;SDS011;35622;52.008;5.426;2022-12-19T00:00:20;46.27;;;24.27;;
49730;SDS011;35622;52.008;5.426;2022-12-19T00:02:46;47.43;;;23.37;;
49730;SDS011;35622;52.008;5.426;2022-12-19T00:05:12;44.93;;;23.43;;
49730;SDS011;35622;52.008;5.426;2022-12-19T00:07:37;45.30;;;23.90;;
49730;SDS011;35622;52.008;5.426;2022-12-19T00:10:03;43.03;;;23.67;;
49730;SDS011;35622;52.008;5.426;2022-12-19T00:12:30;49.97;;;24.43;;
49730;SDS011;35622;52.008;5.426;2022-12-19T00:14:58;48.73;;;24.93;;
49730;SDS011;35622;52.008;5.426;2022-12-19T00:17:24;48.50;;;26.70;;
49730;SDS011;35622;52.008;5.426;2022-12-19T00:19:49;54.63;;;26.90;;
49730;SDS011;35622;52.008;5.426;2022-12-19T00:22:18;53.23;;;25.77;;
49730;SDS011;35622;52.008;5.426;2022-12-19T00:24:44;55.37;;;26.93;;
49730;SDS011;35622;52.008;5.426;2022-12-19T00:27:09;53.03;;;26.60;;
49730;SDS011;35622;52.008;5.426;2022-12-19T00:29:35;56.67;;;28.57;;
49730;SDS011;35622;52.008;5.426;2022-12-19T00:32:00;53.47;;;27.57;;
49730;SDS011;35622;52.008;5.426;2022-12-19T00:34:26;54.90;;;26.87;;
49730;SDS011;35622;52.008;5.426;2022-12-19T00:36:51;55.50;;;27.57;;
49730;SDS011;35622;52.008;5.426;2022-12-19T00:39:17;55.93;;;27.17;;
49730;SDS011;35622;52.008;5.426;2022-12-19T00:41:43;52.97;;;27.53;;
49730;SDS011;35622;52.008;5.426;2022-12-19T00:44:17;54.20;;;27.67;;
49730;SDS011;35622;52.008;5.426;2022-12-19T00:46:43;55.77;;;27.80;;
49730;SDS011;35622;52.008;5.426;2022-12-19T00:49:09;55.30;;;27.37;;
49730;SDS011;35622;52.008;5.426;2022-12-19T00:51:35;47.53;;;25.80;;
49730;SDS011;35622;52.008;5.426;2022-12-19T00:54:01;52.83;;;27.23;;
49730;SDS011;35622;52.008;5.426;2022-12-19T00:56:28;49.50;;;25.67;;
49730;SDS011;35622;52.008;5.426;2022-12-19T00:58:56;50.40;;;25.23;;
49730;SDS011;35622;52.008;5.426;2022-12-19T01:01:23;49.53;;;24.90;;
49730;SDS011;35622;52.008;5.426;2022-12-19T01:03:51;48.23;;;24.40;;
49730;SDS011;35622;52.008;5.426;2022-12-19T01:06:17;47.67;;;24.80;;
49730;SDS011;35622;52.008;5.426;2022-12-19T01:08:43;53.07;;;25.80;;
49730;SDS011;35622;52.008;5.426;2022-12-19T01:11:08;47.77;;;24.97;;
49730;SDS011;35622;52.008;5.426;2022-12-19T01:13:35;49.37;;;25.37;;
49730;SDS011;35622;52.008;5.426;2022-12-19T01:16:02;45.90;;;26.37;;
49730;SDS011;35622;52.008;5.426;2022-12-19T01:18:29;52.23;;;25.73;;
49730;SDS011;35622;52.008;5.426;2022-12-19T01:20:59;48.17;;;25.00;;
49730;SDS011;35622;52.008;5.426;2022-12-19T01:23:27;53.70;;;27.30;;
49730;SDS011;35622;52.008;5.426;2022-12-19T01:25:53;51.10;;;26.07;;
49730;SDS011;35622;52.008;5.426;2022-12-19T01:28:19;48.80;;;26.77;;
49730;SDS011;35622;52.008;5.426;2022-12-19T01:30:45;53.30;;;27.37;;
49730;SDS011;35622;52.008;5.426;2022-12-19T01:33:11;53.20;;;27.47;;
49730;SDS011;35622;52.008;5.426;2022-12-19T01:35:38;53.77;;;26.40;;
49730;SDS011;35622;52.008;5.426;2022-12-19T01:38:05;54.00;;;26.20;;
49730;SDS011;35622;52.008;5.426;2022-12-19T01:40:30;50.37;;;26.43;;
49730;SDS011;35622;52.008;5.426;2022-12-19T01:42:56;53.37;;;27.23;;
49730;SDS011;35622;52.008;5.426;2022-12-19T01:45:23;55.03;;;26.47;;
49730;SDS011;35622;52.008;5.426;2022-12-19T01:47:52;50.60;;;26.40;;
49730;SDS011;35622;52.008;5.426;2022-12-19T01:50:57;49.23;;;25.13;;
49730;SDS011;35622;52.008;5.426;2022-12-19T01:53:18;54.13;;;26.77;;
49730;SDS011;35622;52.008;5.426;2022-12-19T01:55:44;52.23;;;25.83;;
49730;SDS011;35622;52.008;5.426;2022-12-19T01:58:10;47.60;;;25.20;;
49730;SDS011;35622;52.008;5.426;2022-12-19T02:00:40;54.27;;;25.03;;
49730;SDS011;35622;52.008;5.426;2022-12-19T02:05:35;56.23;;;25.87;;
49730;SDS011;35622;52.008;5.426;2022-12-19T02:08:02;50.13;;;25.23;;
49730;SDS011;35622;52.008;5.426;2022-12-19T02:10:28;50.37;;;24.57;;
49730;SDS011;35622;52.008;5.426;2022-12-19T02:12:54;49.93;;;25.00;;
49730;SDS011;35622;52.008;5.426;2022-12-19T02:15:20;55.87;;;25.53;;
49730;SDS011;35622;52.008;5.426;2022-12-19T02:26:06;49.90;;;23.67;;
49730;SDS011;35622;52.008;5.426;2022-12-19T02:31:14;47.73;;;22.53;;
49730;SDS011;35622;52.008;5.426;2022-12-19T02:37:09;46.97;;;23.20;;
49730;SDS011;35622;52.008;5.426;2022-12-19T02:42:34;44.80;;;22.27;;
49730;SDS011;35622;52.008;5.426;2022-12-19T02:45:04;45.03;;;22.93;;
49730;SDS011;35622;52.008;5.426;2022-12-19T02:47:32;46.87;;;22.93;;
49730;SDS011;35622;52.008;5.426;2022-12-19T02:49:59;46.93;;;22.93;;
49730;SDS011;35622;52.008;5.426;2022-12-19T02:54:50;51.67;;;24.57;;
49730;SDS011;35622;52.008;5.426;2022-12-19T02:57:26;53.37;;;24.47;;
49730;SDS011;35622;52.008;5.426;2022-12-19T02:59:58;46.40;;;23.63;;
49730;SDS011;35622;52.008;5.426;2022-12-19T03:02:36;49.60;;;24.43;;
49730;SDS011;35622;52.008;5.426;2022-12-19T03:05:15;50.33;;;24.17;;
49730;SDS011;35622;52.008;5.426;2022-12-19T03:10:56;47.23;;;22.33;;
49730;SDS011;35622;52.008;5.426;2022-12-19T03:13:26;47.07;;;23.43;;
49730;SDS011;35622;52.008;5.426;2022-12-19T03:15:58;47.73;;;24.23;;
49730;SDS011;35622;52.008;5.426;2022-12-19T03:18:26;48.50;;;22.87;;
49730;SDS011;35622;52.008;5.426;2022-12-19T03:23:39;46.03;;;24.00;;
49730;SDS011;35622;52.008;5.426;2022-12-19T03:26:11;48.20;;;23.80;;
49730;SDS011;35622;52.008;5.426;2022-12-19T03:28:47;49.40;;;23.47;;
49730;SDS011;35622;52.008;5.426;2022-12-19T03:31:21;43.67;;;22.83;;
49730;SDS011;35622;52.008;5.426;2022-12-19T03:33:52;50.37;;;23.00;;
49730;SDS011;35622;52.008;5.426;2022-12-19T03:36:23;44.03;;;22.27;;
49730;SDS011;35622;52.008;5.426;2022-12-19T03:38:52;48.87;;;22.40;;
49730;SDS011;35622;52.008;5.426;2022-12-19T03:41:19;41.80;;;21.47;;
49730;SDS011;35622;52.008;5.426;2022-12-19T03:44:06;43.27;;;22.67;;
49730;SDS011;35622;52.008;5.426;2022-12-19T03:46:34;45.73;;;21.77;;
49730;SDS011;35622;52.008;5.426;2022-12-19T03:49:05;42.10;;;22.23;;
49730;SDS011;35622;52.008;5.426;2022-12-19T03:51:35;37.90;;;21.07;;
49730;SDS011;35622;52.008;5.426;2022-12-19T03:54:25;46.20;;;20.83;;
49730;SDS011;35622;52.008;5.426;2022-12-19T03:57:05;40.83;;;21.23;;
49730;SDS011;35622;52.008;5.426;2022-12-19T03:59:38;40.83;;;20.47;;
49730;SDS011;35622;52.008;5.426;2022-12-19T04:02:06;38.80;;;20.93;;
49730;SDS011;35622;52.008;5.426;2022-12-19T04:04:34;43.80;;;21.67;;
49730;SDS011;35622;52.008;5.426;2022-12-19T04:07:03;45.77;;;22.77;;
49730;SDS011;35622;52.008;5.426;2022-12-19T04:09:31;38.37;;;20.30;;
49730;SDS011;35622;52.008;5.426;2022-12-19T04:11:59;37.70;;;20.17;;
49730;SDS011;35622;52.008;5.426;2022-12-19T04:14:29;42.20;;;21.50;;
49730;SDS011;35622;52.008;5.426;2022-12-19T04:22:18;36.57;;;19.93;;
49730;SDS011;35622;52.008;5.426;2022-12-19T04:24:48;40.17;;;20.37;;
49730;SDS011;35622;52.008;5.426;2022-12-19T04:27:16;38.67;;;19.70;;
49730;SDS011;35622;52.008;5.426;2022-12-19T04:29:44;38.57;;;19.83;;
49730;SDS011;35622;52.008;5.426;2022-12-19T04:32:10;36.90;;;20.33;;
49730;SDS011;35622;52.008;5.426;2022-12-19T04:34:37;41.33;;;19.60;;
49730;SDS011;35622;52.008;5.426;2022-12-19T04:37:02;37.60;;;19.77;;
49730;SDS011;35622;52.008;5.426;2022-12-19T04:39:28;36.10;;;18.73;;
49730;SDS011;35622;52.008;5.426;2022-12-19T04:41:54;35.60;;;19.23;;
49730;SDS011;35622;52.008;5.426;2022-12-19T04:44:19;33.67;;;17.57;;
49730;SDS011;35622;52.008;5.426;2022-12-19T04:46:45;33.73;;;19.10;;
49730;SDS011;35622;52.008;5.426;2022-12-19T04:49:11;38.03;;;18.57;;
49730;SDS011;35622;52.008;5.426;2022-12-19T04:51:36;38.03;;;18.90;;
49730;SDS011;35622;52.008;5.426;2022-12-19T04:54:02;35.70;;;19.23;;
49730;SDS011;35622;52.008;5.426;2022-12-19T04:56:28;31.13;;;17.57;;
49730;SDS011;35622;52.008;5.426;2022-12-19T04:58:57;33.63;;;17.53;;
49730;SDS011;35622;52.008;5.426;2022-12-19T05:01:24;41.13;;;18.50;;
49730;SDS011;35622;52.008;5.426;2022-12-19T05:03:50;33.73;;;18.27;;
49730;SDS011;35622;52.008;5.426;2022-12-19T05:06:16;31.27;;;16.97;;
49730;SDS011;35622;52.008;5.426;2022-12-19T05:08:43;66.70;;;19.40;;
49730;SDS011;35622;52.008;5.426;2022-12-19T05:11:10;41.13;;;17.67;;
49730;SDS011;35622;52.008;5.426;2022-12-19T05:13:37;35.93;;;15.97;;
49730;SDS011;35622;52.008;5.426;2022-12-19T05:16:07;31.93;;;17.10;;
49730;SDS011;35622;52.008;5.426;2022-12-19T05:18:34;30.27;;;17.53;;
49730;SDS011;35622;52.008;5.426;2022-12-19T05:21:01;30.00;;;16.07;;
49730;SDS011;35622;52.008;5.426;2022-12-19T05:23:26;32.47;;;16.77;;
49730;SDS011;35622;52.008;5.426;2022-12-19T05:25:52;29.40;;;16.17;;
49730;SDS011;35622;52.008;5.426;2022-12-19T05:28:21;27.27;;;16.00;;
49730;SDS011;35622;52.008;5.426;2022-12-19T05:30:46;28.10;;;15.33;;
49730;SDS011;35622;52.008;5.426;2022-12-19T05:33:12;24.73;;;14.73;;
49730;SDS011;35622;52.008;5.426;2022-12-19T05:35:37;46.80;;;15.37;;
49730;SDS011;35622;52.008;5.426;2022-12-19T05:38:04;25.33;;;14.53;;
49730;SDS011;35622;52.008;5.426;2022-12-19T05:40:29;48.50;;;14.90;;
49730;SDS011;35622;52.008;5.426;2022-12-19T05:42:55;28.40;;;14.23;;
49730;SDS011;35622;52.008;5.426;2022-12-19T05:45:21;23.33;;;12.90;;
49730;SDS011;35622;52.008;5.426;2022-12-19T05:47:46;69.03;;;14.60;;
49730;SDS011;35622;52.008;5.426;2022-12-19T05:50:13;108.45;;;15.02;;
49730;SDS011;35622;52.008;5.426;2022-12-19T05:52:39;42.10;;;14.07;;
49730;SDS011;35622;52.008;5.426;2022-12-19T05:55:05;26.43;;;12.27;;
49730;SDS011;35622;52.008;5.426;2022-12-19T05:57:32;20.20;;;12.00;;
49730;SDS011;35622;52.008;5.426;2022-12-19T05:59:57;19.33;;;11.38;;
49730;SDS011;35622;52.008;5.426;2022-12-19T06:02:23;20.70;;;12.20;;
49730;SDS011;35622;52.008;5.426;2022-12-19T06:04:49;21.00;;;11.33;;
49730;SDS011;35622;52.008;5.426;2022-12-19T06:07:15;27.45;;;12.32;;
49730;SDS011;35622;52.008;5.426;2022-12-19T06:09:41;18.60;;;11.43;;
49730;SDS011;35622;52.008;5.426;2022-12-19T06:12:06;17.13;;;10.83;;
49730;SDS011;35622;52.008;5.426;2022-12-19T06:14:32;16.30;;;10.97;;
49730;SDS011;35622;52.008;5.426;2022-12-19T06:16:57;20.70;;;11.57;;
49730;SDS011;35622;52.008;5.426;2022-12-19T06:19:23;28.27;;;11.53;;
49730;SDS011;35622;52.008;5.426;2022-12-19T06:21:49;30.77;;;11.10;;
49730;SDS011;35622;52.008;5.426;2022-12-19T06:24:15;20.20;;;11.53;;
49730;SDS011;35622;52.008;5.426;2022-12-19T06:26:41;64.07;;;13.55;;
49730;SDS011;35622;52.008;5.426;2022-12-19T06:29:07;24.17;;;12.30;;
49730;SDS011;35622;52.008;5.426;2022-12-19T06:31:32;35.17;;;12.40;;
49730;SDS011;35622;52.008;5.426;2022-12-19T06:33:58;24.15;;;11.60;;
49730;SDS011;35622;52.008;5.426;2022-12-19T06:36:24;67.25;;;12.82;;
49730;SDS011;35622;52.008;5.426;2022-12-19T06:38:52;21.50;;;11.38;;
49730;SDS011;35622;52.008;5.426;2022-12-19T06:41:19;18.83;;;11.18;;
49730;SDS011;35622;52.008;5.426;2022-12-19T06:44:05;21.65;;;11.57;;
49730;SDS011;35622;52.008;5.426;2022-12-19T06:46:32;41.97;;;12.25;;
49730;SDS011;35622;52.008;5.426;2022-12-19T06:48:57;31.48;;;12.35;;
49730;SDS011;35622;52.008;5.426;2022-12-19T06:51:23;17.30;;;9.80;;
49730;SDS011;35622;52.008;5.426;2022-12-19T06:53:49;33.53;;;11.68;;
49730;SDS011;35622;52.008;5.426;2022-12-19T06:56:15;24.30;;;11.73;;
49730;SDS011;35622;52.008;5.426;2022-12-19T06:58:41;46.47;;;14.02;;
49730;SDS011;35622;52.008;5.426;2022-12-19T07:01:14;28.25;;;11.43;;
49730;SDS011;35622;52.008;5.426;2022-12-19T07:03:41;23.27;;;11.55;;
49730;SDS011;35622;52.008;5.426;2022-12-19T07:06:06;23.17;;;11.57;;
49730;SDS011;35622;52.008;5.426;2022-12-19T07:08:32;68.97;;;14.25;;
49730;SDS011;35622;52.008;5.426;2022-12-19T07:10:58;19.33;;;11.37;;
49730;SDS011;35622;52.008;5.426;2022-12-19T07:13:23;25.17;;;12.43;;
49730;SDS011;35622;52.008;5.426;2022-12-19T07:15:49;37.22;;;12.43;;
49730;SDS011;35622;52.008;5.426;2022-12-19T07:18:16;20.25;;;11.82;;
49730;SDS011;35622;52.008;5.426;2022-12-19T07:20:43;22.38;;;11.70;;
49730;SDS011;35622;52.008;5.426;2022-12-19T07:23:09;61.85;;;13.75;;
49730;SDS011;35622;52.008;5.426;2022-12-19T07:25:40;20.83;;;12.20;;
49730;SDS011;35622;52.008;5.426;2022-12-19T07:28:06;27.27;;;12.43;;
49730;SDS011;35622;52.008;5.426;2022-12-19T07:30:32;19.55;;;12.55;;
49730;SDS011;35622;52.008;5.426;2022-12-19T07:32:58;22.42;;;11.75;;
49730;SDS011;35622;52.008;5.426;2022-12-19T07:35:23;25.02;;;12.25;;
49730;SDS011;35622;52.008;5.426;2022-12-19T07:37:49;22.02;;;12.10;;
49730;SDS011;35622;52.008;5.426;2022-12-19T07:40:15;20.67;;;12.30;;
49730;SDS011;35622;52.008;5.426;2022-12-19T07:42:42;36.40;;;12.65;;
49730;SDS011;35622;52.008;5.426;2022-12-19T07:45:08;45.70;;;13.90;;
49730;SDS011;35622;52.008;5.426;2022-12-19T07:47:34;20.85;;;11.90;;
49730;SDS011;35622;52.008;5.426;2022-12-19T07:49:59;39.67;;;11.77;;
49730;SDS011;35622;52.008;5.426;2022-12-19T07:52:25;58.53;;;12.15;;
49730;SDS011;35622;52.008;5.426;2022-12-19T07:54:51;20.52;;;11.60;;
49730;SDS011;35622;52.008;5.426;2022-12-19T07:57:16;17.23;;;10.75;;
49730;SDS011;35622;52.008;5.426;2022-12-19T07:59:42;19.95;;;11.77;;
49730;SDS011;35622;52.008;5.426;2022-12-19T08:02:08;21.08;;;11.65;;
49730;SDS011;35622;52.008;5.426;2022-12-19T08:04:34;41.25;;;12.05;;
49730;SDS011;35622;52.008;5.426;2022-12-19T08:06:59;17.25;;;11.40;;
49730;SDS011;35622;52.008;5.426;2022-12-19T08:09:26;27.38;;;11.75;;
49730;SDS011;35622;52.008;5.426;2022-12-19T08:11:52;50.05;;;12.13;;
49730;SDS011;35622;52.008;5.426;2022-12-19T08:14:18;18.38;;;10.68;;
49730;SDS011;35622;52.008;5.426;2022-12-19T08:16:44;18.77;;;11.25;;
49730;SDS011;35622;52.008;5.426;2022-12-19T08:19:10;22.38;;;11.75;;
49730;SDS011;35622;52.008;5.426;2022-12-19T08:21:35;17.83;;;11.07;;
49730;SDS011;35622;52.008;5.426;2022-12-19T08:24:01;22.27;;;11.32;;
49730;SDS011;35622;52.008;5.426;2022-12-19T08:26:27;20.48;;;11.80;;
49730;SDS011;35622;52.008;5.426;2022-12-19T08:28:53;22.33;;;11.98;;
49730;SDS011;35622;52.008;5.426;2022-12-19T08:31:23;22.17;;;11.37;;
49730;SDS011;35622;52.008;5.426;2022-12-19T08:33:54;18.15;;;10.93;;
49730;SDS011;35622;52.008;5.426;2022-12-19T08:36:21;19.00;;;11.07;;
49730;SDS011;35622;52.008;5.426;2022-12-19T08:38:47;19.33;;;11.63;;
49730;SDS011;35622;52.008;5.426;2022-12-19T08:41:13;18.88;;;11.65;;
49730;SDS011;35622;52.008;5.426;2022-12-19T08:43:40;20.67;;;12.38;;
49730;SDS011;35622;52.008;5.426;2022-12-19T08:46:07;31.25;;;12.00;;
49730;SDS011;35622;52.008;5.426;2022-12-19T08:48:34;26.02;;;11.90;;
49730;SDS011;35622;52.008;5.426;2022-12-19T08:51:03;21.30;;;11.18;;
49730;SDS011;35622;52.008;5.426;2022-12-19T08:53:34;24.05;;;11.30;;
49730;SDS011;35622;52.008;5.426;2022-12-19T08:56:05;17.08;;;10.40;;
49730;SDS011;35622;52.008;5.426;2022-12-19T08:58:40;20.63;;;11.35;;
49730;SDS011;35622;52.008;5.426;2022-12-19T09:01:07;19.52;;;10.90;;
49730;SDS011;35622;52.008;5.426;2022-12-19T09:03:35;24.52;;;11.68;;
49730;SDS011;35622;52.008;5.426;2022-12-19T09:06:02;18.98;;;10.85;;
49730;SDS011;35622;52.008;5.426;2022-12-19T09:08:29;17.98;;;10.13;;
49730;SDS011;35622;52.008;5.426;2022-12-19T09:10:57;18.90;;;10.52;;
49730;SDS011;35622;52.008;5.426;2022-12-19T09:13:24;22.45;;;11.23;;
49730;SDS011;35622;52.008;5.426;2022-12-19T09:15:57;15.95;;;10.73;;
49730;SDS011;35622;52.008;5.426;2022-12-19T09:18:27;16.80;;;10.57;;
49730;SDS011;35622;52.008;5.426;2022-12-19T09:20:54;17.25;;;10.90;;
49730;SDS011;35622;52.008;5.426;2022-12-19T09:23:20;19.92;;;11.35;;
49730;SDS011;35622;52.008;5.426;2022-12-19T09:25:46;18.00;;;10.32;;
49730;SDS011;35622;52.008;5.426;2022-12-19T09:28:12;20.70;;;10.88;;
49730;SDS011;35622;52.008;5.426;2022-12-19T09:30:38;20.40;;;11.38;;
49730;SDS011;35622;52.008;5.426;2022-12-19T09:33:03;15.57;;;10.00;;
49730;SDS011;35622;52.008;5.426;2022-12-19T09:35:29;16.70;;;11.10;;
49730;SDS011;35622;52.008;5.426;2022-12-19T09:37:55;17.60;;;10.38;;
49730;SDS011;35622;52.008;5.426;2022-12-19T09:40:21;15.85;;;9.98;;
49730;SDS011;35622;52.008;5.426;2022-12-19T09:43:05;15.57;;;10.30;;
49730;SDS011;35622;52.008;5.426;2022-12-19T09:48:32;15.68;;;10.20;;
49730;SDS011;35622;52.008;5.426;2022-12-19T09:53:35;22.27;;;10.25;;
49730;SDS011;35622;52.008;5.426;2022-12-19T09:56:19;17.77;;;10.27;;
49730;SDS011;35622;52.008;5.426;2022-12-19T09:58:51;15.23;;;9.50;;
49730;SDS011;35622;52.008;5.426;2022-12-19T10:01:23;17.00;;;10.00;;
49730;SDS011;35622;52.008;5.426;2022-12-19T10:04:00;20.58;;;10.20;;
49730;SDS011;35622;52.008;5.426;2022-12-19T10:06:32;17.10;;;9.77;;
49730;SDS011;35622;52.008;5.426;2022-12-19T10:08:58;18.90;;;10.43;;
49730;SDS011;35622;52.008;5.426;2022-12-19T10:17:05;17.00;;;10.18;;
49730;SDS011;35622;52.008;5.426;2022-12-19T10:20:07;16.60;;;9.27;;
49730;SDS011;35622;52.008;5.426;2022-12-19T10:31:04;13.25;;;8.77;;
49730;SDS011;35622;52.008;5.426;2022-12-19T10:36:42;16.27;;;9.73;;
49730;SDS011;35622;52.008;5.426;2022-12-19T10:39:22;12.38;;;9.35;;
49730;SDS011;35622;52.008;5.426;2022-12-19T10:42:24;13.27;;;8.77;;
49730;SDS011;35622;52.008;5.426;2022-12-19T10:44:51;14.48;;;9.32;;
49730;SDS011;35622;52.008;5.426;2022-12-19T10:47:18;13.45;;;9.32;;
49730;SDS011;35622;52.008;5.426;2022-12-19T10:49:44;13.27;;;9.13;;
49730;SDS011;35622;52.008;5.426;2022-12-19T10:52:10;12.73;;;9.18;;
49730;SDS011;35622;52.008;5.426;2022-12-19T10:59:58;14.07;;;9.23;;
49730;SDS011;35622;52.008;5.426;2022-12-19T11:05:03;17.60;;;8.35;;
49730;SDS011;35622;52.008;5.426;2022-12-19T11:07:30;13.00;;;8.40;;
49730;SDS011;35622;52.008;5.426;2022-12-19T11:09:56;12.18;;;8.43;;
49730;SDS011;35622;52.008;5.426;2022-12-19T11:12:25;13.30;;;8.13;;
49730;SDS011;35622;52.008;5.426;2022-12-19T11:15:14;12.48;;;8.30;;
49730;SDS011;35622;52.008;5.426;2022-12-19T11:17:40;13.20;;;7.88;;
49730;SDS011;35622;52.008;5.426;2022-12-19T11:20:09;12.07;;;8.30;;
49730;SDS011;35622;52.008;5.426;2022-12-19T11:22:55;12.07;;;8.32;;
49730;SDS011;35622;52.008;5.426;2022-12-19T11:25:30;12.63;;;8.32;;
49730;SDS011;35622;52.008;5.426;2022-12-19T11:28:02;14.30;;;8.32;;
49730;SDS011;35622;52.008;5.426;2022-12-19T11:30:34;12.00;;;7.78;;
49730;SDS011;35622;52.008;5.426;2022-12-19T11:33:06;13.00;;;8.52;;
49730;SDS011;35622;52.008;5.426;2022-12-19T11:35:57;10.70;;;7.80;;
49730;SDS011;35622;52.008;5.426;2022-12-19T11:38:38;13.93;;;9.07;;
49730;SDS011;35622;52.008;5.426;2022-12-19T11:41:19;11.25;;;8.35;;
49730;SDS011;35622;52.008;5.426;2022-12-19T11:43:59;11.15;;;7.53;;
49730;SDS011;35622;52.008;5.426;2022-12-19T11:46:42;11.70;;;8.23;;
49730;SDS011;35622;52.008;5.426;2022-12-19T11:56:48;11.32;;;7.90;;
49730;SDS011;35622;52.008;5.426;2022-12-19T11:59:24;11.18;;;7.47;;
49730;SDS011;35622;52.008;5.426;2022-12-19T12:04:44;11.27;;;7.55;;
49730;SDS011;35622;52.008;5.426;2022-12-19T12:07:19;10.02;;;7.13;;
49730;SDS011;35622;52.008;5.426;2022-12-19T12:09:56;12.43;;;7.45;;
49730;SDS011;35622;52.008;5.426;2022-12-19T12:12:32;9.70;;;7.45;;
49730;SDS011;35622;52.008;5.426;2022-12-19T12:18:14;9.35;;;7.03;;
49730;SDS011;35622;52.008;5.426;2022-12-19T12:21:04;9.95;;;6.57;;
49730;SDS011;35622;52.008;5.426;2022-12-19T12:23:49;9.30;;;6.57;;
49730;SDS011;35622;52.008;5.426;2022-12-19T12:26:27;11.45;;;6.97;;
49730;SDS011;35622;52.008;5.426;2022-12-19T12:34:45;9.77;;;7.10;;
49730;SDS011;35622;52.008;5.426;2022-12-19T12:45:48;9.60;;;6.50;;
49730;SDS011;35622;52.008;5.426;2022-12-19T12:50:42;10.02;;;5.85;;
49730;SDS011;35622;52.008;5.426;2022-12-19T12:53:11;10.50;;;5.72;;
49730;SDS011;35622;52.008;5.426;2022-12-19T12:55:41;9.02;;;5.28;;
49730;SDS011;35622;52.008;5.426;2022-12-19T13:04:06;6.78;;;5.30;;
49730;SDS011;35622;52.008;5.426;2022-12-19T13:09:24;6.63;;;5.07;;
49730;SDS011;35622;52.008;5.426;2022-12-19T13:11:53;6.57;;;4.97;;
49730;SDS011;35622;52.008;5.426;2022-12-19T13:14:48;7.30;;;4.90;;
49730;SDS011;35622;52.008;5.426;2022-12-19T13:22:36;7.38;;;5.05;;
49730;SDS011;35622;52.008;5.426;2022-12-19T13:27:57;8.15;;;5.10;;
49730;SDS011;35622;52.008;5.426;2022-12-19T13:30:26;8.13;;;5.05;;
49730;SDS011;35622;52.008;5.426;2022-12-19T13:37:47;7.85;;;5.18;;
49730;SDS011;35622;52.008;5.426;2022-12-19T13:45:56;7.70;;;5.60;;
49730;SDS011;35622;52.008;5.426;2022-12-19T13:48:39;9.75;;;5.50;;
49730;SDS011;35622;52.008;5.426;2022-12-19T13:51:10;8.93;;;5.57;;
49730;SDS011;35622;52.008;5.426;2022-12-19T13:53:37;8.70;;;5.40;;
49730;SDS011;35622;52.008;5.426;2022-12-19T13:58:45;8.38;;;5.50;;
49730;SDS011;35622;52.008;5.426;2022-12-19T14:01:21;8.50;;;5.15;;
49730;SDS011;35622;52.008;5.426;2022-12-19T14:03:51;6.40;;;4.70;;
49730;SDS011;35622;52.008;5.426;2022-12-19T14:06:20;8.90;;;5.57;;
49730;SDS011;35622;52.008;5.426;2022-12-19T14:08:52;12.10;;;5.50;;
49730;SDS011;35622;52.008;5.426;2022-12-19T14:11:23;8.02;;;4.78;;
49730;SDS011;35622;52.008;5.426;2022-12-19T14:13:53;11.93;;;5.63;;
49730;SDS011;35622;52.008;5.426;2022-12-19T14:16:41;9.32;;;5.63;;
49730;SDS011;35622;52.008;5.426;2022-12-19T14:22:17;6.65;;;4.88;;
49730;SDS011;35622;52.008;5.426;2022-12-19T14:24:54;7.05;;;5.72;;
49730;SDS011;35622;52.008;5.426;2022-12-19T14:27:29;7.95;;;5.60;;
49730;SDS011;35622;52.008;5.426;2022-12-19T14:30:32;7.22;;;4.85;;
49730;SDS011;35622;52.008;5.426;2022-12-19T14:33:04;6.47;;;5.05;;
49730;SDS011;35622;52.008;5.426;2022-12-19T14:35:38;8.75;;;5.72;;
49730;SDS011;35622;52.008;5.426;2022-12-19T14:38:11;8.32;;;5.45;;
49730;SDS011;35622;52.008;5.426;2022-12-19T14:40:41;7.88;;;5.38;;
49730;SDS011;35622;52.008;5.426;2022-12-19T14:46:22;7.75;;;5.10;;
49730;SDS011;35622;52.008;5.426;2022-12-19T14:48:54;6.45;;;4.63;;
49730;SDS011;35622;52.008;5.426;2022-12-19T14:51:37;7.43;;;4.82;;
49730;SDS011;35622;52.008;5.426;2022-12-19T14:56:45;7.53;;;4.80;;
49730;SDS011;35622;52.008;5.426;2022-12-19T15:04:35;6.70;;;4.57;;
49730;SDS011;35622;52.008;5.426;2022-12-19T15:07:06;5.95;;;4.55;;
49730;SDS011;35622;52.008;5.426;2022-12-19T15:09:35;8.32;;;4.57;;
49730;SDS011;35622;52.008;5.426;2022-12-19T15:12:23;7.68;;;4.22;;
49730;SDS011;35622;52.008;5.426;2022-12-19T15:15:39;6.82;;;4.35;;
49730;SDS011;35622;52.008;5.426;2022-12-19T15:20:50;5.72;;;4.38;;
49730;SDS011;35622;52.008;5.426;2022-12-19T15:23:17;6.95;;;4.13;;
49730;SDS011;35622;52.008;5.426;2022-12-19T15:25:43;8.45;;;4.60;;
49730;SDS011;35622;52.008;5.426;2022-12-19T15:28:13;5.60;;;3.95;;
49730;SDS011;35622;52.008;5.426;2022-12-19T15:30:41;7.60;;;4.43;;
49730;SDS011;35622;52.008;5.426;2022-12-19T15:33:14;6.13;;;4.80;;
49730;SDS011;35622;52.008;5.426;2022-12-19T15:35:41;6.60;;;4.65;;
49730;SDS011;35622;52.008;5.426;2022-12-19T15:38:06;5.82;;;4.70;;
49730;SDS011;35622;52.008;5.426;2022-12-19T15:40:32;7.65;;;4.32;;
49730;SDS011;35622;52.008;5.426;2022-12-19T15:42:58;7.53;;;4.82;;
49730;SDS011;35622;52.008;5.426;2022-12-19T15:45:23;8.27;;;4.70;;
49730;SDS011;35622;52.008;5.426;2022-12-19T15:47:50;5.72;;;4.88;;
49730;SDS011;35622;52.008;5.426;2022-12-19T15:52:45;7.75;;;4.82;;
49730;SDS011;35622;52.008;5.426;2022-12-19T15:55:11;8.43;;;5.07;;
49730;SDS011;35622;52.008;5.426;2022-12-19T15:57:43;6.43;;;4.50;;
49730;SDS011;35622;52.008;5.426;2022-12-19T16:02:43;7.90;;;4.50;;
49730;SDS011;35622;52.008;5.426;2022-12-19T16:05:10;8.02;;;4.30;;
49730;SDS011;35622;52.008;5.426;2022-12-19T16:07:35;6.18;;;4.45;;
49730;SDS011;35622;52.008;5.426;2022-12-19T16:10:01;5.95;;;4.07;;
49730;SDS011;35622;52.008;5.426;2022-12-19T16:12:32;6.80;;;4.70;;
49730;SDS011;35622;52.008;5.426;2022-12-19T16:15:00;6.40;;;4.72;;
49730;SDS011;35622;52.008;5.426;2022-12-19T16:17:28;7.80;;;5.07;;
49730;SDS011;35622;52.008;5.426;2022-12-19T16:19:56;7.78;;;4.82;;
49730;SDS011;35622;52.008;5.426;2022-12-19T16:22:25;7.72;;;4.93;;
49730;SDS011;35622;52.008;5.426;2022-12-19T16:24:52;6.82;;;4.72;;
49730;SDS011;35622;52.008;5.426;2022-12-19T16:27:25;8.20;;;4.63;;
49730;SDS011;35622;52.008;5.426;2022-12-19T16:29:53;6.82;;;5.07;;
49730;SDS011;35622;52.008;5.426;2022-12-19T16:32:19;6.07;;;4.85;;
49730;SDS011;35622;52.008;5.426;2022-12-19T16:34:48;8.98;;;5.43;;
49730;SDS011;35622;52.008;5.426;2022-12-19T16:37:14;8.63;;;5.10;;
49730;SDS011;35622;52.008;5.426;2022-12-19T16:39:40;8.80;;;5.22;;
49730;SDS011;35622;52.008;5.426;2022-12-19T16:42:15;7.07;;;4.55;;
49730;SDS011;35622;52.008;5.426;2022-12-19T16:44:41;10.93;;;4.93;;
49730;SDS011;35622;52.008;5.426;2022-12-19T16:47:13;7.82;;;5.07;;
49730;SDS011;35622;52.008;5.426;2022-12-19T16:49:40;6.80;;;5.03;;
49730;SDS011;35622;52.008;5.426;2022-12-19T16:52:06;8.60;;;5.13;;
49730;SDS011;35622;52.008;5.426;2022-12-19T16:54:32;6.82;;;4.82;;
49730;SDS011;35622;52.008;5.426;2022-12-19T16:56:58;7.35;;;5.00;;
49730;SDS011;35622;52.008;5.426;2022-12-19T16:59:30;6.55;;;4.60;;
49730;SDS011;35622;52.008;5.426;2022-12-19T17:04:47;6.43;;;4.35;;
49730;SDS011;35622;52.008;5.426;2022-12-19T17:07:13;6.93;;;4.40;;
49730;SDS011;35622;52.008;5.426;2022-12-19T17:09:38;6.75;;;4.50;;